createdAt,value
2022-11-17T00:01:21.339Z,3.11
2022-11-17T00:03:52.463Z,3.24
2022-11-17T00:06:22.522Z,3.06
2022-11-17T00:08:53.595Z,3.04
2022-11-17T00:11:23.671Z,3.06
2022-11-17T00:14:12.494Z,2.98
2022-11-17T00:16:42.555Z,3.07
2022-11-17T00:19:31.508Z,2.93
2022-11-17T00:22:04.802Z,2.96
2022-11-17T00:24:37.775Z,2.98
2022-11-17T00:27:08.254Z,2.98
2022-11-17T00:29:39.293Z,2.83
2022-11-17T00:32:38.234Z,2.71
2022-11-17T00:35:08.111Z,2.75
2022-11-17T00:38:03.547Z,2.81
2022-11-17T00:40:31.435Z,2.71
2022-11-17T00:42:59.524Z,2.59
2022-11-17T00:45:27.824Z,2.82
2022-11-17T00:47:56.265Z,2.86
2022-11-17T00:50:24.952Z,2.83
2022-11-17T00:52:53.201Z,2.69
2022-11-17T00:55:21.672Z,2.73
2022-11-17T00:57:50.171Z,2.69
2022-11-17T01:00:18.538Z,2.75
2022-11-17T01:02:46.910Z,2.65
2022-11-17T01:05:15.456Z,2.64
2022-11-17T01:07:43.881Z,2.62
2022-11-17T01:10:12.463Z,2.54
2022-11-17T01:12:40.611Z,2.64
2022-11-17T01:15:10.085Z,2.50
2022-11-17T01:17:37.521Z,2.56
2022-11-17T01:20:07.382Z,2.37
2022-11-17T01:22:37.312Z,2.65
2022-11-17T01:25:07.673Z,2.74
2022-11-17T01:27:35.939Z,2.53
2022-11-17T01:30:05.264Z,2.49
2022-11-17T01:32:35.300Z,2.51
2022-11-17T01:35:04.125Z,2.47
2022-11-17T01:37:32.279Z,2.50
2022-11-17T01:40:00.607Z,2.47
2022-11-17T01:42:29.113Z,2.48
2022-11-17T01:45:25.955Z,2.50
2022-11-17T01:48:04.789Z,2.52
2022-11-17T01:50:49.421Z,2.56
2022-11-17T01:53:23.381Z,2.58
2022-11-17T01:56:09.558Z,2.48
2022-11-17T01:58:53.950Z,2.46
2022-11-17T02:01:24.767Z,2.52
2022-11-17T02:03:55.435Z,2.46
2022-11-17T02:06:36.500Z,2.51
2022-11-17T02:09:07.868Z,2.45
2022-11-17T02:11:38.104Z,2.52
2022-11-17T02:14:09.182Z,2.47
2022-11-17T02:16:39.305Z,2.47
2022-11-17T02:19:16.643Z,2.50
2022-11-17T02:22:30.905Z,2.46
2022-11-17T02:26:01.508Z,2.50
2022-11-17T02:29:00.215Z,2.48
2022-11-17T02:32:05.729Z,2.49
2022-11-17T02:35:08.146Z,2.57
2022-11-17T02:38:35.430Z,2.39
2022-11-17T02:41:43.490Z,2.43
2022-11-17T02:45:01.120Z,2.44
2022-11-17T02:47:43.274Z,2.42
2022-11-17T02:50:17.631Z,2.34
2022-11-17T02:52:50.918Z,2.38
2022-11-17T02:55:21.187Z,2.37
2022-11-17T02:57:51.392Z,2.48
2022-11-17T03:00:22.041Z,2.49
2022-11-17T03:03:40.185Z,2.56
2022-11-17T03:06:45.219Z,2.38
2022-11-17T03:09:56.967Z,2.36
2022-11-17T03:12:46.288Z,2.38
2022-11-17T03:16:14.649Z,2.44
2022-11-17T03:19:16.035Z,2.31
2022-11-17T03:22:32.730Z,2.33
2022-11-17T03:25:17.659Z,2.34
2022-11-17T03:27:58.515Z,2.36
2022-11-17T03:30:37.316Z,2.41
2022-11-17T03:33:25.753Z,2.43
2022-11-17T03:36:13.763Z,2.48
2022-11-17T03:39:03.056Z,2.39
2022-11-17T03:41:45.142Z,2.34
2022-11-17T03:44:24.043Z,2.30
2022-11-17T03:47:02.198Z,2.39
2022-11-17T03:50:12.969Z,2.33
2022-11-17T03:52:46.356Z,2.31
2022-11-17T03:55:17.491Z,2.50
2022-11-17T03:58:18.543Z,2.37
2022-11-17T04:00:56.604Z,2.31
2022-11-17T04:03:34.531Z,2.33
2022-11-17T04:06:05.304Z,2.33
2022-11-17T04:08:35.415Z,2.44
2022-11-17T04:11:38.282Z,2.42
2022-11-17T04:14:24.507Z,2.35
2022-11-17T04:16:54.616Z,2.28
2022-11-17T04:19:24.725Z,2.32
2022-11-17T04:21:55.300Z,2.37
2022-11-17T04:24:25.396Z,2.36
2022-11-17T04:27:14.289Z,2.37
2022-11-17T04:29:44.348Z,2.38
2022-11-17T04:32:14.508Z,2.39
2022-11-17T04:34:44.590Z,2.46
2022-11-17T04:37:17.653Z,2.48
2022-11-17T04:39:47.791Z,2.43
2022-11-17T04:42:18.148Z,2.46
2022-11-17T04:44:48.232Z,2.46
2022-11-17T04:47:16.667Z,2.39
2022-11-17T04:49:45.050Z,2.37
2022-11-17T04:52:13.492Z,2.39
2022-11-17T04:54:42.098Z,2.51
2022-11-17T04:57:10.409Z,2.42
2022-11-17T04:59:38.885Z,2.61
2022-11-17T05:02:08.202Z,2.53
2022-11-17T05:04:56.645Z,2.42
2022-11-17T05:07:24.474Z,2.41
2022-11-17T05:09:52.464Z,2.44
2022-11-17T05:12:42.680Z,2.50
2022-11-17T05:15:32.737Z,2.47
2022-11-17T05:18:02.813Z,2.67
2022-11-17T05:20:33.330Z,2.52
2022-11-17T05:23:22.249Z,2.53
2022-11-17T05:25:54.212Z,2.73
2022-11-17T05:28:24.262Z,2.69
2022-11-17T05:30:54.316Z,2.70
2022-11-17T05:33:24.403Z,2.64
2022-11-17T05:35:54.477Z,2.42
2022-11-17T05:38:24.607Z,2.47
2022-11-17T05:40:54.760Z,2.44
2022-11-17T05:43:24.850Z,2.46
2022-11-17T05:45:54.926Z,2.48
2022-11-17T05:48:25.371Z,2.53
2022-11-17T05:50:56.923Z,2.46
2022-11-17T05:53:29.389Z,2.47
2022-11-17T05:56:35.514Z,2.55
2022-11-17T05:59:24.803Z,2.68
2022-11-17T06:02:34.454Z,2.63
2022-11-17T06:05:06.075Z,2.70
2022-11-17T06:07:38.603Z,2.62
2022-11-17T06:10:09.698Z,2.65
2022-11-17T06:12:39.745Z,2.72
2022-11-17T06:15:10.523Z,2.69
2022-11-17T06:18:13.610Z,2.67
2022-11-17T06:20:50.756Z,2.69
2022-11-17T06:23:28.915Z,2.69
2022-11-17T06:26:03.434Z,2.79
2022-11-17T06:28:39.155Z,2.66
2022-11-17T06:31:09.826Z,2.56
2022-11-17T06:33:39.998Z,2.84
2022-11-17T06:36:09.865Z,2.84
2022-11-17T06:38:39.096Z,2.76
2022-11-17T06:41:11.719Z,2.80
2022-11-17T06:43:45.199Z,2.80
2022-11-17T06:46:15.243Z,2.94
2022-11-17T06:48:43.577Z,2.96
2022-11-17T06:51:12.156Z,2.85
2022-11-17T06:53:40.375Z,2.99
2022-11-17T06:56:08.918Z,2.96
2022-11-17T06:58:41.543Z,2.95
2022-11-17T07:01:15.507Z,3.01
2022-11-17T07:03:43.488Z,3.00
2022-11-17T07:06:13.468Z,2.81
2022-11-17T07:08:43.072Z,2.94
2022-11-17T07:11:16.841Z,2.84
2022-11-17T07:13:46.261Z,2.84
2022-11-17T07:16:23.497Z,2.91
2022-11-17T07:18:53.634Z,2.94
2022-11-17T07:21:22.935Z,3.12
2022-11-17T07:23:51.980Z,3.09
2022-11-17T07:26:21.993Z,3.05
2022-11-17T07:28:51.753Z,3.02
2022-11-17T07:31:22.398Z,3.03
2022-11-17T07:33:54.497Z,2.95
2022-11-17T07:36:23.483Z,2.97
2022-11-17T07:38:53.028Z,3.12
2022-11-17T07:41:22.802Z,3.09
2022-11-17T07:43:52.573Z,3.08
2022-11-17T07:46:22.328Z,3.06
2022-11-17T07:48:55.064Z,3.08
2022-11-17T07:51:22.196Z,3.12
2022-11-17T07:53:50.612Z,3.10
2022-11-17T07:56:19.066Z,3.07
2022-11-17T07:58:47.487Z,3.12
2022-11-17T08:01:15.960Z,3.11
2022-11-17T08:03:46.380Z,3.13
2022-11-17T08:06:14.672Z,3.08
2022-11-17T08:08:45.911Z,3.14
2022-11-17T08:11:14.588Z,3.13
2022-11-17T08:13:42.955Z,3.19
2022-11-17T08:16:12.790Z,3.25
2022-11-17T08:18:45.949Z,3.15
2022-11-17T08:21:18.964Z,3.25
2022-11-17T08:23:52.446Z,3.13
2022-11-17T08:26:25.468Z,3.25
2022-11-17T08:28:58.923Z,3.28
2022-11-17T08:31:29.219Z,3.23
2022-11-17T08:33:59.389Z,3.23
2022-11-17T08:36:29.496Z,3.35
2022-11-17T08:38:59.611Z,3.33
2022-11-17T08:41:29.870Z,3.31
2022-11-17T08:44:02.364Z,3.38
2022-11-17T08:46:32.502Z,3.35
2022-11-17T08:49:03.054Z,3.23
2022-11-17T08:51:33.257Z,3.24
2022-11-17T08:54:03.498Z,3.38
2022-11-17T08:56:33.618Z,3.38
2022-11-17T08:59:03.673Z,3.41
2022-11-17T09:01:33.809Z,3.42
2022-11-17T09:04:05.311Z,3.32
2022-11-17T09:06:35.357Z,3.26
2022-11-17T09:09:05.554Z,3.32
2022-11-17T09:11:35.642Z,3.35
2022-11-17T09:14:08.030Z,3.33
2022-11-17T09:16:38.139Z,3.28
2022-11-17T09:19:08.177Z,3.39
2022-11-17T09:21:38.212Z,3.46
2022-11-17T09:24:09.849Z,3.33
2022-11-17T09:26:41.068Z,3.32
2022-11-17T09:29:11.474Z,3.39
2022-11-17T09:31:41.767Z,3.37
2022-11-17T09:34:12.049Z,3.54
2022-11-17T09:36:42.339Z,3.51
2022-11-17T09:39:12.478Z,3.61
2022-11-17T09:41:53.275Z,3.59
2022-11-17T09:45:04.933Z,3.47
2022-11-17T09:48:33.719Z,3.58
2022-11-17T09:51:02.794Z,3.49
2022-11-17T09:53:56.781Z,3.40
2022-11-17T09:56:27.945Z,3.38
2022-11-17T09:59:12.108Z,3.45
2022-11-17T10:01:42.597Z,3.50
2022-11-17T10:04:17.044Z,3.42
2022-11-17T10:06:51.274Z,3.57
2022-11-17T10:09:39.167Z,3.49
2022-11-17T10:12:24.932Z,3.46
2022-11-17T10:14:55.847Z,3.42
2022-11-17T10:17:24.726Z,3.24
2022-11-17T10:19:53.049Z,3.40
2022-11-17T10:22:37.262Z,3.42
2022-11-17T10:25:38.692Z,3.49
2022-11-17T10:28:29.583Z,3.40
2022-11-17T10:31:18.811Z,3.56
2022-11-17T10:33:51.221Z,3.50
2022-11-17T10:36:30.756Z,3.56
2022-11-17T10:39:01.554Z,3.59
2022-11-17T10:41:45.362Z,3.53
2022-11-17T10:44:12.723Z,3.57
2022-11-17T10:47:04.806Z,3.60
2022-11-17T10:49:40.939Z,3.65
2022-11-17T10:52:19.075Z,3.67
2022-11-17T10:54:49.946Z,3.66
2022-11-17T10:57:26.733Z,3.73
2022-11-17T10:59:57.889Z,3.74
2022-11-17T11:02:40.653Z,3.83
2022-11-17T11:05:21.323Z,3.81
2022-11-17T11:07:51.863Z,3.69
2022-11-17T11:10:36.114Z,3.63
2022-11-17T11:13:40.553Z,3.75
2022-11-17T11:16:12.387Z,3.88
2022-11-17T11:18:42.462Z,3.81
2022-11-17T11:21:55.217Z,3.78
2022-11-17T11:24:51.129Z,3.74
2022-11-17T11:27:42.194Z,3.77
2022-11-17T11:30:20.469Z,3.78
2022-11-17T11:33:35.338Z,3.77
2022-11-17T11:36:31.745Z,3.66
2022-11-17T11:39:52.459Z,3.77
2022-11-17T11:43:00.470Z,3.82
2022-11-17T11:46:04.112Z,3.70
2022-11-17T11:48:41.216Z,3.64
2022-11-17T11:51:36.894Z,3.73
2022-11-17T11:54:46.303Z,3.78
2022-11-17T11:57:41.011Z,3.81
2022-11-17T12:00:19.083Z,3.78
2022-11-17T12:03:19.003Z,3.86
2022-11-17T12:06:25.111Z,3.83
2022-11-17T12:09:30.999Z,3.85
2022-11-17T12:12:20.876Z,3.83
2022-11-17T12:15:18.513Z,3.94
2022-11-17T12:18:12.825Z,3.88
2022-11-17T12:21:21.685Z,3.85
2022-11-17T12:24:34.644Z,3.81
2022-11-17T12:27:33.644Z,3.85
2022-11-17T12:30:30.667Z,3.81
2022-11-17T12:33:04.788Z,3.79
2022-11-17T12:35:39.931Z,3.72
2022-11-17T12:38:16.493Z,3.79
2022-11-17T12:40:56.003Z,3.77
2022-11-17T12:43:28.104Z,3.83
2022-11-17T12:46:27.051Z,3.96
2022-11-17T12:49:23.965Z,3.69
2022-11-17T12:52:16.994Z,3.77
2022-11-17T12:55:40.146Z,3.72
2022-11-17T12:58:25.514Z,3.62
2022-11-17T13:02:00.845Z,3.77
2022-11-17T13:04:55.298Z,3.79
2022-11-17T13:07:27.785Z,3.91
2022-11-17T13:10:00.233Z,3.80
2022-11-17T13:12:33.852Z,3.85
2022-11-17T13:15:06.053Z,3.90
2022-11-17T13:17:44.132Z,3.76
2022-11-17T13:20:26.999Z,3.75
2022-11-17T13:23:20.749Z,3.88
2022-11-17T13:25:50.791Z,3.99
2022-11-17T13:28:31.749Z,3.86
2022-11-17T13:31:03.457Z,3.85
2022-11-17T13:33:39.622Z,3.76
2022-11-17T13:36:20.541Z,3.82
2022-11-17T13:38:54.849Z,3.67
2022-11-17T13:41:29.378Z,3.72
2022-11-17T13:44:01.454Z,3.77
2022-11-17T13:46:31.624Z,3.74
2022-11-17T13:49:01.665Z,3.85
2022-11-17T13:51:39.328Z,3.84
2022-11-17T13:54:13.097Z,3.64
2022-11-17T13:57:25.020Z,3.69
2022-11-17T13:59:58.664Z,3.84
2022-11-17T14:02:29.926Z,3.75
2022-11-17T14:05:15.130Z,3.72
2022-11-17T14:07:46.970Z,3.67
2022-11-17T14:10:22.961Z,3.75
2022-11-17T14:13:22.882Z,3.53
2022-11-17T14:16:00.686Z,3.70
2022-11-17T14:18:37.433Z,3.60
2022-11-17T14:21:17.295Z,3.56
2022-11-17T14:23:47.344Z,3.61
2022-11-17T14:26:25.602Z,3.55
2022-11-17T14:29:01.983Z,3.64
2022-11-17T14:31:33.322Z,3.53
2022-11-17T14:34:03.417Z,3.57
2022-11-17T14:36:35.058Z,3.61
2022-11-17T14:39:15.981Z,3.42
2022-11-17T14:41:51.040Z,3.38
2022-11-17T14:44:21.963Z,3.46
2022-11-17T14:46:51.996Z,3.44
2022-11-17T14:49:22.004Z,3.40
2022-11-17T14:51:53.207Z,3.36
2022-11-17T14:54:23.325Z,3.29
2022-11-17T14:56:53.342Z,3.35
2022-11-17T14:59:23.849Z,3.37
2022-11-17T15:01:54.106Z,3.30
2022-11-17T15:07:14.556Z,3.16
2022-11-17T15:09:44.664Z,3.23
2022-11-17T15:12:18.371Z,3.24
2022-11-17T15:14:48.486Z,3.21
2022-11-17T15:17:19.487Z,3.09
2022-11-17T15:19:49.638Z,3.06
2022-11-17T15:22:19.781Z,3.12
2022-11-17T15:24:49.870Z,2.98
2022-11-17T15:27:20.008Z,3.03
2022-11-17T15:29:50.401Z,2.92
2022-11-17T15:32:20.479Z,3.01
2022-11-17T15:34:50.507Z,2.95
2022-11-17T15:37:20.568Z,2.87
2022-11-17T15:39:50.641Z,2.77
2022-11-17T15:42:21.012Z,2.85
2022-11-17T15:44:51.179Z,2.82
2022-11-17T15:47:21.309Z,2.82
2022-11-17T15:49:58.535Z,2.72
2022-11-17T15:52:48.744Z,2.67
2022-11-17T15:55:15.845Z,2.68
2022-11-17T15:57:45.866Z,2.68
2022-11-17T16:00:17.070Z,2.57
2022-11-17T16:02:47.161Z,2.52
2022-11-17T16:05:17.290Z,2.51
2022-11-17T16:07:47.449Z,2.63
2022-11-17T16:10:17.601Z,2.71
2022-11-17T16:12:49.615Z,2.67
2022-11-17T16:15:19.648Z,2.47
2022-11-17T16:17:49.699Z,2.67
2022-11-17T16:20:19.941Z,2.49
2022-11-17T16:22:50.060Z,2.56
2022-11-17T16:25:20.359Z,2.52
2022-11-17T16:27:50.424Z,2.48
2022-11-17T16:30:20.676Z,2.37
2022-11-17T16:32:50.740Z,2.50
2022-11-17T16:35:20.811Z,2.48
2022-11-17T16:37:54.694Z,2.50
2022-11-17T16:40:24.792Z,2.42
2022-11-17T16:42:54.880Z,2.46
2022-11-17T16:45:25.372Z,2.46
2022-11-17T16:47:55.421Z,2.42
2022-11-17T16:50:25.535Z,2.46
2022-11-17T16:52:55.595Z,2.40
2022-11-17T16:55:25.638Z,2.45
2022-11-17T16:57:55.697Z,2.51
2022-11-17T17:00:25.766Z,2.40
2022-11-17T17:02:57.270Z,2.30
2022-11-17T17:05:30.888Z,2.39
2022-11-17T17:08:00.953Z,2.44
2022-11-17T17:10:32.776Z,2.50
2022-11-17T17:13:02.355Z,2.41
2022-11-17T17:15:30.994Z,2.43
2022-11-17T17:17:59.391Z,2.31
2022-11-17T17:20:27.750Z,2.43
2022-11-17T17:23:01.723Z,2.49
2022-11-17T17:25:33.064Z,2.46
2022-11-17T17:28:03.544Z,2.38
2022-11-17T17:30:33.548Z,2.40
2022-11-17T17:33:03.605Z,2.39
2022-11-17T17:35:36.135Z,2.23
2022-11-17T17:38:06.220Z,2.23
2022-11-17T17:40:38.153Z,2.20
2022-11-17T17:43:08.179Z,2.32
2022-11-17T17:45:40.399Z,2.29
2022-11-17T17:48:10.501Z,2.22
2022-11-17T17:50:43.174Z,2.21
2022-11-17T17:53:11.983Z,2.14
2022-11-17T17:55:42.795Z,2.12
2022-11-17T17:58:12.724Z,2.09
2022-11-17T18:00:42.920Z,2.10
2022-11-17T18:03:12.659Z,2.08
2022-11-17T18:05:42.600Z,2.20
2022-11-17T18:08:13.142Z,2.17
2022-11-17T18:10:42.762Z,2.21
2022-11-17T18:13:12.531Z,2.11
2022-11-17T18:15:42.474Z,2.10
2022-11-17T18:18:12.633Z,2.08
2022-11-17T18:20:40.961Z,2.12
2022-11-17T18:23:09.355Z,2.14
2022-11-17T18:25:37.786Z,2.10
2022-11-17T18:28:06.182Z,2.10
2022-11-17T18:30:34.642Z,1.99
2022-11-17T18:33:03.362Z,2.04
2022-11-17T18:35:31.499Z,2.06
2022-11-17T18:38:01.601Z,2.00
2022-11-17T18:40:31.568Z,2.02
2022-11-17T18:43:02.346Z,2.08
2022-11-17T18:45:38.381Z,2.10
2022-11-17T18:48:06.387Z,2.08
2022-11-17T18:50:47.574Z,1.90
2022-11-17T18:53:24.809Z,1.88
2022-11-17T18:56:08.111Z,1.94
2022-11-17T18:58:41.013Z,1.69
2022-11-17T19:01:25.103Z,1.61
2022-11-17T19:03:58.590Z,1.67
2022-11-17T19:06:28.026Z,1.66
2022-11-17T19:09:00.895Z,1.67
2022-11-17T19:11:34.640Z,1.69
2022-11-17T19:14:05.532Z,1.63
2022-11-17T19:16:44.358Z,1.70
2022-11-17T19:19:15.189Z,1.63
2022-11-17T19:21:45.844Z,1.66
2022-11-17T19:24:15.834Z,1.67
2022-11-17T19:26:47.474Z,1.62
2022-11-17T19:29:17.677Z,1.67
2022-11-17T19:31:47.976Z,1.62
2022-11-17T19:34:17.533Z,1.51
2022-11-17T19:36:47.776Z,1.54
2022-11-17T19:39:17.745Z,1.69
2022-11-17T19:41:47.790Z,1.66
2022-11-17T19:44:17.637Z,1.62
2022-11-17T19:46:47.699Z,1.65
2022-11-17T19:49:17.832Z,1.70
2022-11-17T19:51:47.846Z,1.59
2022-11-17T19:54:17.732Z,1.57
2022-11-17T19:56:47.603Z,1.63
2022-11-17T19:59:18.641Z,1.74
2022-11-17T20:01:47.591Z,1.55
2022-11-17T20:04:17.928Z,1.58
2022-11-17T20:06:51.050Z,1.57
2022-11-17T20:09:21.318Z,1.45
2022-11-17T20:11:51.351Z,1.31
2022-11-17T20:14:21.916Z,1.50
2022-11-17T20:16:51.355Z,1.49
2022-11-17T20:19:21.144Z,1.42
2022-11-17T20:21:48.375Z,1.44
2022-11-17T20:24:16.740Z,1.44
2022-11-17T20:26:47.349Z,1.37
2022-11-17T20:29:16.869Z,1.34
2022-11-17T20:31:44.982Z,1.27
2022-11-17T20:34:13.457Z,1.37
2022-11-17T20:36:41.744Z,1.30
2022-11-17T20:39:10.258Z,1.43
2022-11-17T20:41:38.803Z,1.21
2022-11-17T20:44:23.963Z,1.20
2022-11-17T20:46:55.767Z,1.25
2022-11-17T20:49:25.695Z,1.36
2022-11-17T20:51:55.708Z,1.25
2022-11-17T20:54:48.405Z,1.18
2022-11-17T20:57:18.862Z,1.03
2022-11-17T20:59:48.559Z,1.07
2022-11-17T21:02:18.597Z,1.12
2022-11-17T21:04:48.475Z,1.00
2022-11-17T21:07:18.426Z,1.08
2022-11-17T21:09:48.517Z,0.99
2022-11-17T21:12:18.778Z,1.12
2022-11-17T21:14:48.991Z,1.10
2022-11-17T21:17:36.864Z,1.11
2022-11-17T21:20:07.322Z,1.04
2022-11-17T21:22:39.747Z,1.00
2022-11-17T21:25:10.045Z,1.11
2022-11-17T21:27:40.069Z,1.02
2022-11-17T21:30:13.526Z,1.04
2022-11-17T21:32:44.014Z,1.13
2022-11-17T21:35:14.330Z,1.06
2022-11-17T21:37:44.366Z,1.09
2022-11-17T21:40:14.557Z,1.06
2022-11-17T21:42:45.289Z,0.98
2022-11-17T21:45:17.214Z,0.98
2022-11-17T21:47:47.419Z,0.95
2022-11-17T21:50:20.061Z,0.98
2022-11-17T21:52:50.149Z,0.93
2022-11-17T21:55:20.424Z,0.88
2022-11-17T21:57:51.631Z,0.94
2022-11-17T22:00:21.880Z,1.07
2022-11-17T22:02:51.937Z,0.95
2022-11-17T22:05:23.316Z,0.97
2022-11-17T22:07:53.602Z,1.05
2022-11-17T22:10:24.831Z,0.98
2022-11-17T22:12:54.884Z,1.00
2022-11-17T22:15:27.091Z,0.93
2022-11-17T22:17:57.120Z,1.07
2022-11-17T22:20:28.739Z,1.04
2022-11-17T22:22:58.598Z,0.93
2022-11-17T22:28:17.017Z,0.88
2022-11-17T22:30:47.094Z,0.83
2022-11-17T22:33:17.933Z,0.82
2022-11-17T22:35:48.825Z,0.93
2022-11-17T22:38:19.057Z,0.92
2022-11-17T22:40:49.108Z,0.81
2022-11-17T22:43:19.172Z,0.93
2022-11-17T22:45:49.283Z,0.78
2022-11-17T22:48:19.414Z,0.79
2022-11-17T22:50:49.641Z,0.78
2022-11-17T22:53:19.755Z,0.73
2022-11-17T22:55:49.820Z,0.75
2022-11-17T22:58:20.716Z,0.84
2022-11-17T23:00:53.064Z,0.81
2022-11-17T23:03:23.612Z,0.79
2022-11-17T23:05:53.739Z,0.77
2022-11-17T23:08:23.790Z,0.72
2022-11-17T23:11:35.037Z,0.65
2022-11-17T23:13:54.239Z,0.65
2022-11-17T23:16:25.033Z,0.64
2022-11-17T23:18:57.226Z,0.60
2022-11-17T23:21:26.530Z,0.66
2022-11-17T23:23:55.111Z,0.52
2022-11-17T23:26:23.731Z,0.50
2022-11-17T23:28:51.805Z,0.64
2022-11-17T23:31:20.498Z,0.58
2022-11-17T23:33:49.094Z,0.59
2022-11-17T23:36:22.020Z,0.50
2022-11-17T23:38:56.382Z,0.70
2022-11-17T23:41:26.543Z,0.48
2022-11-17T23:43:56.630Z,0.63
2022-11-17T23:46:27.415Z,0.54
2022-11-17T23:48:57.474Z,0.54
2022-11-17T23:51:29.955Z,0.44
2022-11-17T23:54:03.019Z,0.33
2022-11-17T23:56:35.025Z,0.32
2022-11-17T23:59:07.062Z,0.34
